Wetterdaten: Woche 24.11.03 - 30.11.03 (KW48)
Datum Zeit Temperatur Luftfeuchte Luftdruck Regenmenge Wind Richtung Taupunkt Windchill
24.11.2003 00:00 4.1 C 100 % 1008.9 hPa 0.0 l/m 2.5 km/h (1 Bft) SO 4.1 C 3.6 C
24.11.2003 01:00 3.9 C 100 % 1008.9 hPa 0.0 l/m 6.0 km/h (2 Bft) O-SO 3.9 C 2.6 C
24.11.2003 02:00 3.6 C 99 % 1008.7 hPa 0.0 l/m 3.1 km/h (1 Bft) O-SO 3.5 C 2.9 C
24.11.2003 03:00 3.9 C 100 % 1008.9 hPa 0.0 l/m 4.9 km/h (1 Bft) O-SO 3.9 C 2.7 C
24.11.2003 04:00 3.8 C 100 % 1008.7 hPa 0.0 l/m 0.0 km/h (0 Bft) N 3.8 C 3.8 C
24.11.2003 05:00 3.6 C 100 % 1008.7 hPa 0.0 l/m 0.8 km/h (0 Bft) O-SO 3.6 C 3.5 C
24.11.2003 06:00 3.5 C 100 % 1008.7 hPa 0.0 l/m 1.0 km/h (0 Bft) O-SO 3.4 C 3.4 C
24.11.2003 07:00 2.9 C 100 % 1008.7 hPa 0.0 l/m 1.5 km/h (1 Bft) O-SO 2.9 C 2.5 C
24.11.2003 08:00 2.9 C 100 % 1009.7 hPa 0.0 l/m 1.1 km/h (0 Bft) O-SO 2.8 C 2.7 C
24.11.2003 09:00 3.7 C 100 % 1009.7 hPa 0.0 l/m 0.8 km/h (0 Bft) O-SO 3.7 C 3.5 C
24.11.2003 10:00 4.5 C 100 % 1009.7 hPa 0.0 l/m 0.6 km/h (0 Bft) O-SO 4.5 C 4.5 C
24.11.2003 11:00 5.8 C 97 % 1009.7 hPa 0.0 l/m 0.1 km/h (0 Bft) N 5.3 C 5.8 C
24.11.2003 12:00 8.0 C 81 % 1008.8 hPa 0.0 l/m 1.8 km/h (1 Bft) NW 5.0 C 7.8 C
24.11.2003 13:00 9.9 C 72 % 1008.6 hPa 0.0 l/m 0.1 km/h (0 Bft) N 5.1 C 9.9 C
24.11.2003 14:00 10.7 C 70 % 1007.6 hPa 0.0 l/m 0.4 km/h (0 Bft) N-NO 5.5 C 10.7 C
24.11.2003 15:00 10.6 C 71 % 1007.6 hPa 0.0 l/m 0.3 km/h (0 Bft) NO 5.6 C 10.6 C
24.11.2003 16:00 9.6 C 70 % 1007.6 hPa 0.0 l/m 1.5 km/h (1 Bft) O-NO 4.5 C 9.5 C
24.11.2003 17:00 8.6 C 79 % 1007.6 hPa 0.0 l/m 0.3 km/h (0 Bft) O-NO 5.2 C 8.5 C
24.11.2003 18:00 7.2 C 82 % 1007.7 hPa 0.0 l/m 2.8 km/h (1 Bft) O-NO 4.4 C 6.8 C
24.11.2003 19:00 5.9 C 88 % 1008.7 hPa 0.0 l/m 3.4 km/h (1 Bft) O-NO 4.0 C 5.2 C
24.11.2003 20:00 5.2 C 91 % 1009.4 hPa 0.0 l/m 1.6 km/h (1 Bft) O-NO 3.8 C 4.9 C
24.11.2003 21:00 4.6 C 93 % 1010.5 hPa 0.0 l/m 1.9 km/h (1 Bft) O-NO 3.6 C 4.2 C
24.11.2003 22:00 3.9 C 97 % 1010.8 hPa 0.0 l/m 1.4 km/h (1 Bft) O-NO 3.4 C 3.6 C
24.11.2003 23:00 4.0 C 99 % 1010.8 hPa 0.0 l/m 3.9 km/h (1 Bft) O 3.9 C 3.2 C
25.11.2003 00:00 4.1 C 100 % 1011.8 hPa 0.0 l/m 5.7 km/h (1 Bft) O 4.1 C 2.9 C
25.11.2003 01:00 4.2 C 99 % 1011.8 hPa 0.0 l/m 5.7 km/h (1 Bft) O 4.1 C 2.8 C
25.11.2003 02:00 3.7 C 100 % 1011.8 hPa 0.0 l/m 2.7 km/h (1 Bft) O 3.7 C 3.2 C
25.11.2003 03:00 3.5 C 100 % 1011.8 hPa 0.0 l/m 0.0 km/h (0 Bft) N 3.5 C 3.5 C
25.11.2003 04:00 3.6 C 100 % 1011.8 hPa 0.0 l/m 0.0 km/h (0 Bft) N 3.6 C 3.6 C
25.11.2003 05:00 3.9 C 100 % 1011.8 hPa 0.0 l/m 0.9 km/h (0 Bft) O 3.9 C 3.8 C
25.11.2003 06:00 4.0 C 100 % 1012.0 hPa 0.0 l/m 0.0 km/h (0 Bft) N 4.0 C 4.0 C
25.11.2003 07:00 3.8 C 100 % 1012.8 hPa 0.0 l/m 0.0 km/h (0 Bft) N 3.8 C 3.8 C
25.11.2003 08:00 4.3 C 100 % 1012.9 hPa 0.0 l/m 0.0 km/h (0 Bft) N 4.3 C 4.3 C
25.11.2003 09:00 5.6 C 100 % 1013.3 hPa 0.0 l/m 1.8 km/h (1 Bft) O 5.6 C 5.3 C
25.11.2003 10:00 6.9 C 94 % 1013.8 hPa 0.0 l/m 4.1 km/h (1 Bft) O 6.0 C 6.2 C
25.11.2003 11:00 7.8 C 88 % 1013.5 hPa 0.0 l/m 0.5 km/h (0 Bft) O-SO 6.0 C 7.7 C
25.11.2003 12:00 8.2 C 85 % 1012.8 hPa 0.0 l/m 0.0 km/h (0 Bft) N 5.9 C 8.2 C
25.11.2003 13:00 8.8 C 83 % 1012.8 hPa 0.0 l/m 0.0 km/h (0 Bft) N 6.0 C 8.8 C
25.11.2003 14:00 8.9 C 83 % 1012.8 hPa 0.0 l/m 0.0 km/h (0 Bft) N 6.1 C 8.9 C
25.11.2003 15:00 8.7 C 86 % 1012.8 hPa 0.0 l/m 0.0 km/h (0 Bft) N 6.5 C 8.7 C
25.11.2003 16:00 8.1 C 90 % 1012.8 hPa 0.0 l/m 0.0 km/h (0 Bft) N 6.6 C 8.1 C
25.11.2003 17:00 7.5 C 94 % 1012.8 hPa 0.0 l/m 0.0 km/h (0 Bft) N 6.6 C 7.5 C
25.11.2003 18:00 7.3 C 98 % 1013.1 hPa 0.0 l/m 0.0 km/h (0 Bft) N 6.9 C 7.3 C
25.11.2003 19:00 6.9 C 99 % 1013.6 hPa 0.0 l/m 2.7 km/h (1 Bft) O 6.7 C 6.4 C
25.11.2003 20:00 6.6 C 99 % 1013.4 hPa 0.0 l/m 0.0 km/h (0 Bft) N 6.5 C 6.6 C
25.11.2003 21:00 6.0 C 96 % 1013.7 hPa 0.0 l/m 0.0 km/h (0 Bft) N 5.4 C 6.0 C
25.11.2003 22:00 5.5 C 100 % 1013.3 hPa 0.0 l/m 4.5 km/h (1 Bft) O-SO 5.5 C 4.7 C
25.11.2003 23:00 4.7 C 100 % 1012.8 hPa 0.0 l/m 0.5 km/h (0 Bft) O-SO 4.7 C 4.7 C
26.11.2003 00:00 4.1 C 100 % 1012.8 hPa 0.0 l/m 1.4 km/h (1 Bft) O-SO 4.1 C 4.0 C
26.11.2003 01:00 4.5 C 100 % 1012.8 hPa 0.0 l/m 0.3 km/h (0 Bft) O-SO 4.5 C 4.5 C
26.11.2003 02:00 4.4 C 100 % 1012.4 hPa 0.0 l/m 0.7 km/h (0 Bft) O-SO 4.4 C 4.3 C
26.11.2003 03:00 4.3 C 100 % 1012.4 hPa 0.0 l/m 0.0 km/h (0 Bft) N 4.3 C 4.3 C
26.11.2003 04:00 3.8 C 100 % 1011.4 hPa 0.0 l/m 1.5 km/h (1 Bft) W 3.8 C 3.6 C
26.11.2003 05:00 3.6 C 100 % 1010.7 hPa 0.0 l/m 0.7 km/h (0 Bft) NW 3.6 C 3.5 C
26.11.2003 06:00 3.7 C 100 % 1010.1 hPa 0.0 l/m 0.3 km/h (0 Bft) N-NW 3.7 C 3.7 C
26.11.2003 07:00 3.7 C 100 % 1009.7 hPa 0.0 l/m 0.7 km/h (0 Bft) NW 3.7 C 3.5 C
26.11.2003 08:00 3.4 C 100 % 1009.7 hPa 0.0 l/m 0.8 km/h (0 Bft) NO 3.5 C 3.3 C
26.11.2003 09:00 3.6 C 100 % 1009.4 hPa 0.0 l/m 0.6 km/h (0 Bft) NW 3.6 C 3.5 C
26.11.2003 10:00 3.9 C 100 % 1008.5 hPa 0.0 l/m 1.1 km/h (1 Bft) N-NW 3.9 C 3.8 C
26.11.2003 11:00 4.9 C 100 % 1007.0 hPa 0.0 l/m 0.4 km/h (0 Bft) N-NW 4.9 C 4.9 C
26.11.2003 12:00 6.2 C 98 % 1006.2 hPa 0.0 l/m 0.6 km/h (0 Bft) N-NW 5.8 C 6.2 C
26.11.2003 13:00 8.2 C 82 % 1005.1 hPa 0.0 l/m 0.7 km/h (0 Bft) N-NW 5.2 C 8.1 C
26.11.2003 14:00 9.1 C 78 % 1004.1 hPa 0.0 l/m 1.2 km/h (1 Bft) N-NW 5.4 C 9.0 C
26.11.2003 15:00 8.6 C 81 % 1003.5 hPa 0.0 l/m 11.3 km/h (2 Bft) O-SO 5.6 C 6.8 C
26.11.2003 16:00 6.7 C 86 % 1003.5 hPa 0.0 l/m 11.3 km/h (2 Bft) O-SO 4.5 C 4.5 C
26.11.2003 17:00 5.7 C 92 % 1003.5 hPa 0.0 l/m 5.9 km/h (2 Bft) O-SO 4.5 C 4.6 C
26.11.2003 18:00 6.4 C 96 % 1003.5 hPa 0.0 l/m 2.8 km/h (1 Bft) O-SO 5.7 C 5.8 C
26.11.2003 19:00 6.4 C 99 % 1003.5 hPa 0.0 l/m 1.7 km/h (1 Bft) O-SO 6.2 C 6.2 C
26.11.2003 20:00 6.4 C 99 % 1003.5 hPa 0.0 l/m 2.9 km/h (1 Bft) O-SO 6.2 C 5.9 C
26.11.2003 21:00 6.3 C 98 % 1003.5 hPa 0.0 l/m 0.5 km/h (0 Bft) SO 6.0 C 6.3 C
26.11.2003 22:00 6.1 C 97 % 1002.5 hPa 0.0 l/m 0.0 km/h (0 Bft) N 5.7 C 6.1 C
26.11.2003 23:00 6.1 C 96 % 1002.4 hPa 0.0 l/m 0.0 km/h (0 Bft) N 5.5 C 6.1 C
27.11.2003 00:00 6.0 C 96 % 1001.7 hPa 0.0 l/m 0.0 km/h (0 Bft) N 5.4 C 6.0 C
27.11.2003 01:00 5.8 C 97 % 1000.7 hPa 0.0 l/m 0.1 km/h (0 Bft) SO 5.3 C 5.8 C
27.11.2003 02:00 5.8 C 98 % 1000.4 hPa 0.0 l/m 0.0 km/h (0 Bft) N 5.5 C 5.8 C
27.11.2003 03:00 5.9 C 98 % 1000.4 hPa 0.0 l/m 0.2 km/h (0 Bft) SO 5.6 C 5.9 C
27.11.2003 04:00 5.9 C 98 % 999.5 hPa 0.0 l/m 0.0 km/h (0 Bft) N 5.6 C 5.9 C
27.11.2003 05:00 6.0 C 98 % 999.3 hPa 0.0 l/m 0.5 km/h (0 Bft) SO 5.7 C 5.9 C
27.11.2003 06:00 6.1 C 97 % 999.3 hPa 0.0 l/m 1.9 km/h (1 Bft) SO 5.7 C 5.9 C
27.11.2003 07:00 6.1 C 95 % 999.2 hPa 0.0 l/m 0.8 km/h (0 Bft) SO 5.3 C 6.0 C
27.11.2003 08:00 6.1 C 94 % 999.0 hPa 0.0 l/m 0.0 km/h (0 Bft) N 5.3 C 6.1 C
27.11.2003 09:00 6.3 C 89 % 999.3 hPa 0.0 l/m 0.7 km/h (0 Bft) SO 4.6 C 6.2 C
27.11.2003 10:00 6.7 C 87 % 998.2 hPa 0.0 l/m 0.1 km/h (0 Bft) N 4.7 C 6.7 C
27.11.2003 11:00 7.1 C 85 % 997.4 hPa 0.0 l/m 1.8 km/h (1 Bft) O-SO 4.8 C 6.9 C
27.11.2003 12:00 7.3 C 81 % 996.7 hPa 0.0 l/m 1.1 km/h (1 Bft) O-SO 4.3 C 7.2 C
27.11.2003 13:00 7.2 C 81 % 996.8 hPa 0.0 l/m 1.1 km/h (0 Bft) N-NW 4.2 C 7.2 C
27.11.2003 14:00 7.3 C 79 % 996.5 hPa 0.0 l/m 0.6 km/h (0 Bft) N-NW 3.9 C 7.3 C
27.11.2003 15:00 7.5 C 78 % 996.8 hPa 0.0 l/m 0.2 km/h (0 Bft) N 3.9 C 7.5 C
27.11.2003 16:00 7.3 C 81 % 997.2 hPa 0.0 l/m 1.8 km/h (1 Bft) W-NW 4.3 C 7.0 C
27.11.2003 17:00 6.5 C 84 % 997.8 hPa 0.0 l/m 5.8 km/h (1 Bft) NW 4.0 C 5.4 C
27.11.2003 18:00 5.2 C 85 % 998.3 hPa 0.0 l/m 2.5 km/h (1 Bft) W-NW 2.9 C 4.8 C
27.11.2003 19:00 4.3 C 86 % 999.1 hPa 0.4 l/m 2.9 km/h (1 Bft) O-SO 2.2 C 3.7 C
27.11.2003 20:00 3.9 C 89 % 999.5 hPa 1.4 l/m 4.9 km/h (1 Bft) NW 2.2 C 2.9 C
27.11.2003 21:00 3.6 C 90 % 1000.8 hPa 1.4 l/m 12.2 km/h (2 Bft) NW 2.1 C 0.9 C
27.11.2003 22:00 3.0 C 93 % 1001.8 hPa 1.4 l/m 3.0 km/h (1 Bft) SO 1.9 C 2.2 C
27.11.2003 23:00 1.6 C 95 % 1003.0 hPa 2.4 l/m 6.0 km/h (2 Bft) SO 0.8 C 0.0 C
28.11.2003 00:00 0.8 C 97 % 1003.5 hPa 2.1 l/m 9.3 km/h (2 Bft) SO 0.4 C -2.1 C
28.11.2003 01:00 0.7 C 99 % 1004.3 hPa 1.8 l/m 5.8 km/h (2 Bft) SO 0.5 C -1.0 C
28.11.2003 02:00 0.6 C 99 % 1004.8 hPa 2.4 l/m 5.2 km/h (1 Bft) SO 0.5 C -0.8 C
28.11.2003 03:00 0.7 C 100 % 1005.6 hPa 2.1 l/m 5.0 km/h (1 Bft) SO 0.7 C -0.7 C
28.11.2003 04:00 1.1 C 99 % 1005.6 hPa 1.4 l/m 6.7 km/h (2 Bft) S-SO 1.0 C -0.6 C
28.11.2003 05:00 1.5 C 100 % 1006.0 hPa 1.0 l/m 8.1 km/h (2 Bft) SO 1.5 C -0.8 C
28.11.2003 06:00 1.6 C 100 % 1006.7 hPa 1.4 l/m 10.5 km/h (2 Bft) SO 1.5 C -1.3 C
28.11.2003 07:00 1.7 C 99 % 1007.6 hPa 1.0 l/m 8.7 km/h (2 Bft) SO 1.6 C -0.5 C
28.11.2003 08:00 1.9 C 99 % 1008.3 hPa 1.0 l/m 10.2 km/h (2 Bft) SO 1.8 C -0.9 C
28.11.2003 09:00 2.4 C 99 % 1009.3 hPa 0.3 l/m 12.7 km/h (3 Bft) SO 2.1 C -1.0 C
28.11.2003 10:00 2.9 C 99 % 1009.7 hPa 0.0 l/m 10.8 km/h (2 Bft) SO 2.7 C 0.1 C
28.11.2003 11:00 3.9 C 96 % 1010.1 hPa 0.0 l/m 10.1 km/h (2 Bft) W 3.3 C 1.6 C
28.11.2003 12:00 4.2 C 91 % 1010.8 hPa 0.3 l/m 18.1 km/h (3 Bft) W-NW 2.8 C 0.3 C
28.11.2003 13:00 4.1 C 90 % 1010.8 hPa 0.3 l/m 14.9 km/h (3 Bft) W-NW 2.7 C 1.0 C
28.11.2003 14:00 4.0 C 91 % 1010.8 hPa 0.3 l/m 15.7 km/h (3 Bft) W-NW 2.6 C 0.5 C
28.11.2003 15:00 3.8 C 90 % 1011.8 hPa 0.0 l/m 16.8 km/h (3 Bft) W-NW 2.3 C 0.1 C
28.11.2003 16:00 3.6 C 91 % 1012.8 hPa 0.0 l/m 9.2 km/h (2 Bft) W-NW 2.3 C 1.4 C
28.11.2003 17:00 3.4 C 92 % 1013.1 hPa 0.7 l/m 4.4 km/h (1 Bft) S-SW 2.3 C 2.5 C
28.11.2003 18:00 3.0 C 96 % 1013.9 hPa 0.3 l/m 1.7 km/h (1 Bft) N-NO 2.4 C 2.8 C
28.11.2003 19:00 3.0 C 97 % 1014.5 hPa 0.0 l/m 0.8 km/h (0 Bft) SO 2.5 C 2.9 C
28.11.2003 20:00 3.1 C 96 % 1014.9 hPa 1.4 l/m 3.7 km/h (1 Bft) SO 2.5 C 2.3 C
28.11.2003 21:00 3.1 C 96 % 1015.1 hPa 0.7 l/m 3.7 km/h (1 Bft) NW 2.5 C 2.2 C
28.11.2003 22:00 3.0 C 96 % 1015.9 hPa 0.7 l/m 2.8 km/h (1 Bft) NW 2.5 C 2.3 C
28.11.2003 23:00 2.9 C 96 % 1016.0 hPa 0.3 l/m 2.9 km/h (1 Bft) NW 2.4 C 2.3 C
29.11.2003 00:00 2.8 C 95 % 1016.0 hPa 0.0 l/m 4.3 km/h (1 Bft) W-NW 2.1 C 1.9 C
29.11.2003 01:00 2.6 C 94 % 1016.0 hPa 0.0 l/m 3.4 km/h (1 Bft) NW 1.7 C 1.8 C
29.11.2003 02:00 2.5 C 96 % 1016.0 hPa 0.3 l/m 0.7 km/h (0 Bft) SO 1.9 C 2.3 C
29.11.2003 03:00 2.4 C 96 % 1016.0 hPa 0.0 l/m 0.0 km/h (0 Bft) N 1.9 C 2.4 C
29.11.2003 04:00 2.5 C 95 % 1016.0 hPa 0.0 l/m 1.2 km/h (1 Bft) S-SW 1.8 C 2.2 C
29.11.2003 05:00 2.4 C 96 % 1016.0 hPa 0.3 l/m 0.0 km/h (0 Bft) N 1.9 C 2.4 C
29.11.2003 06:00 2.3 C 97 % 1016.1 hPa 0.0 l/m 0.0 km/h (0 Bft) N 1.9 C 2.3 C
29.11.2003 07:00 2.3 C 98 % 1016.9 hPa 0.0 l/m 0.0 km/h (0 Bft) N 2.0 C 2.3 C
29.11.2003 08:00 2.4 C 98 % 1017.0 hPa 0.0 l/m 0.2 km/h (0 Bft) W-SW 2.1 C 2.4 C
29.11.2003 09:00 2.7 C 95 % 1017.0 hPa 0.0 l/m 0.0 km/h (0 Bft) N 2.0 C 2.7 C
29.11.2003 10:00 3.4 C 93 % 1017.0 hPa 0.0 l/m 0.0 km/h (0 Bft) N 2.4 C 3.4 C
29.11.2003 11:00 3.8 C 88 % 1016.7 hPa 0.0 l/m 0.0 km/h (0 Bft) N 2.0 C 3.8 C
29.11.2003 12:00 4.1 C 84 % 1016.0 hPa 0.0 l/m 0.1 km/h (0 Bft) N 1.6 C 4.1 C
29.11.2003 13:00 4.3 C 83 % 1015.3 hPa 0.0 l/m 0.0 km/h (0 Bft) N 1.7 C 4.3 C
29.11.2003 14:00 4.2 C 83 % 1014.9 hPa 0.0 l/m 1.9 km/h (1 Bft) W-NW 1.5 C 3.8 C
29.11.2003 15:00 4.1 C 83 % 1014.9 hPa 0.0 l/m 0.1 km/h (0 Bft) N 1.5 C 4.1 C
29.11.2003 16:00 3.9 C 87 % 1014.9 hPa 0.0 l/m 0.0 km/h (0 Bft) N 1.9 C 3.9 C
29.11.2003 17:00 3.7 C 87 % 1015.1 hPa 0.0 l/m 0.0 km/h (0 Bft) N 1.8 C 3.7 C
29.11.2003 18:00 3.7 C 92 % 1014.9 hPa 0.0 l/m 2.5 km/h (1 Bft) N 2.4 C 3.1 C
29.11.2003 19:00 3.6 C 90 % 1015.5 hPa 0.0 l/m 1.9 km/h (1 Bft) N 2.0 C 3.4 C
29.11.2003 20:00 3.6 C 82 % 1016.0 hPa 0.0 l/m 8.4 km/h (2 Bft) O-SO 0.8 C 1.4 C
29.11.2003 21:00 3.4 C 82 % 1015.4 hPa 0.0 l/m 12.0 km/h (2 Bft) O-SO 0.6 C 0.4 C
29.11.2003 22:00 3.3 C 81 % 1015.2 hPa 0.0 l/m 4.2 km/h (1 Bft) O-SO 0.4 C 2.3 C
29.11.2003 23:00 3.0 C 83 % 1014.9 hPa 0.0 l/m 2.8 km/h (1 Bft) SO 0.4 C 2.7 C
30.11.2003 00:00 2.7 C 83 % 1014.9 hPa 0.0 l/m 3.4 km/h (1 Bft) SO 0.0 C 2.0 C
30.11.2003 01:00 2.3 C 88 % 1014.9 hPa 0.0 l/m 0.0 km/h (0 Bft) N 0.6 C 2.3 C
30.11.2003 02:00 1.9 C 93 % 1014.9 hPa 0.0 l/m 0.1 km/h (0 Bft) N 0.9 C 1.9 C
30.11.2003 03:00 1.8 C 95 % 1014.0 hPa 0.0 l/m 0.0 km/h (0 Bft) N 1.1 C 1.8 C
30.11.2003 04:00 1.8 C 95 % 1013.9 hPa 0.0 l/m 0.0 km/h (0 Bft) N 1.1 C 1.8 C
30.11.2003 05:00 2.2 C 97 % 1013.9 hPa 0.0 l/m 0.0 km/h (0 Bft) N 1.7 C 2.2 C
30.11.2003 06:00 2.5 C 97 % 1013.9 hPa 0.3 l/m 0.0 km/h (0 Bft) N 2.1 C 2.5 C
30.11.2003 07:00 2.6 C 97 % 1013.9 hPa 0.0 l/m 0.0 km/h (0 Bft) N 2.2 C 2.6 C
30.11.2003 08:00 2.8 C 98 % 1013.9 hPa 0.0 l/m 0.3 km/h (0 Bft) W-NW 2.5 C 2.7 C
30.11.2003 09:00 3.2 C 96 % 1013.9 hPa 0.0 l/m 0.3 km/h (0 Bft) W 2.7 C 3.2 C
30.11.2003 10:00 3.8 C 96 % 1013.9 hPa 0.0 l/m 0.0 km/h (0 Bft) N 3.3 C 3.8 C
30.11.2003 11:00 4.2 C 96 % 1013.4 hPa 0.3 l/m 0.0 km/h (0 Bft) N 3.7 C 4.2 C
30.11.2003 12:00 5.0 C 96 % 1012.8 hPa 0.3 l/m 0.5 km/h (0 Bft) S 4.4 C 4.9 C
30.11.2003 13:00 5.8 C 91 % 1012.5 hPa 0.0 l/m 0.4 km/h (0 Bft) S-SO 4.5 C 5.8 C
30.11.2003 14:00 6.0 C 90 % 1011.9 hPa 0.0 l/m 0.4 km/h (0 Bft) S-SO 4.4 C 6.0 C
30.11.2003 15:00 6.0 C 91 % 1011.8 hPa 0.0 l/m 0.0 km/h (0 Bft) N 4.6 C 6.0 C
30.11.2003 16:00 5.8 C 94 % 1011.5 hPa 0.0 l/m 0.4 km/h (0 Bft) S-SO 4.9 C 5.7 C
30.11.2003 17:00 5.4 C 95 % 1010.8 hPa 0.0 l/m 0.8 km/h (0 Bft) SO 4.6 C 5.3 C
30.11.2003 18:00 5.0 C 96 % 1010.6 hPa 0.0 l/m 0.0 km/h (0 Bft) N 4.4 C 5.0 C
30.11.2003 19:00 4.9 C 97 % 1009.7 hPa 0.0 l/m 0.5 km/h (0 Bft) O 4.4 C 4.8 C
30.11.2003 20:00 4.7 C 97 % 1009.7 hPa 0.0 l/m 0.0 km/h (0 Bft) N 4.2 C 4.7 C
30.11.2003 21:00 4.0 C 95 % 1009.5 hPa 0.0 l/m 0.6 km/h (0 Bft) O 3.2 C 4.0 C
30.11.2003 22:00 3.9 C 98 % 1008.7 hPa 0.0 l/m 0.0 km/h (0 Bft) N 3.7 C 3.9 C
30.11.2003 23:00 3.8 C 98 % 1008.7 hPa 0.0 l/m 0.6 km/h (0 Bft) O 3.6 C 3.8 C
Min-Datum _ 28.11.03 24.11.03 27.11.03 - 24.11.03 - 30.11.03 28.11.03
_ Min-Zeit 02:10 15:16 12:03 - 00:09 - 00:52 01:55
Minimum _ 0.5 C 67 % 996.2 hPa - 0.0 km/h (0 Bft) - -0.8 C -3.9 C
Max-Datum _ 24.11.03 24.11.03 29.11.03 27.11.03 27.11.03 - 25.11.03 24.11.03
_ Max-Zeit 14:55 00:00 06:52 22:00 21:36 - 18:25 14:55
Maximum _ 11.2 C 100 % 1017.0 hPa 2.4 l/m 29.7 km/h
NW (5 Bft)
- 7.1 C 11.2 C
Durchschnitt _ 4.6 C 93 % 1009.5 hPa #28.7 l/m 2.5 km/h (1 Bft) O-SO 3.6 C 4.1 C

Durchschnitt Minimum Temp.4.3 C
Durchschnitt Maximum Temp.5.0 C
© Kaiko 2003